createdAt,value
2022-10-19T00:00:20.887Z,101697.40
2022-10-19T00:02:48.382Z,101697.77
2022-10-19T00:04:56.289Z,101696.25
2022-10-19T00:07:03.892Z,101696.65
2022-10-19T00:09:13.765Z,101691.91
2022-10-19T00:11:20.837Z,101693.42
2022-10-19T00:13:27.682Z,101689.66
2022-10-19T00:15:34.180Z,101684.87
2022-10-19T00:17:41.067Z,101685.41
2022-10-19T00:19:47.781Z,101682.96
2022-10-19T00:21:55.067Z,101682.94
2022-10-19T00:24:00.913Z,101680.79
2022-10-19T00:26:07.439Z,101678.08
2022-10-19T00:28:14.314Z,101681.75
2022-10-19T00:30:20.574Z,101683.20
2022-10-19T00:32:29.700Z,101686.41
2022-10-19T00:34:36.048Z,101687.13
2022-10-19T00:36:43.096Z,101686.98
2022-10-19T00:38:50.432Z,101684.71
2022-10-19T00:40:59.283Z,101686.40
2022-10-19T00:43:05.456Z,101686.98
2022-10-19T00:45:17.932Z,101685.69
2022-10-19T00:47:25.944Z,101687.23
2022-10-19T00:49:37.537Z,101688.12
2022-10-19T00:51:45.358Z,101688.95
2022-10-19T00:53:52.453Z,101688.05
2022-10-19T00:55:59.968Z,101689.98
2022-10-19T00:58:06.182Z,101689.09
2022-10-19T01:00:12.937Z,101688.29
2022-10-19T01:02:19.577Z,101689.54
2022-10-19T01:04:30.884Z,101690.70
2022-10-19T01:06:38.203Z,101688.75
2022-10-19T01:08:44.693Z,101682.83
2022-10-19T01:11:15.512Z,101688.23
2022-10-19T01:13:29.778Z,101691.88
2022-10-19T01:15:43.922Z,101692.33
2022-10-19T01:18:11.155Z,101690.30
2022-10-19T01:20:41.607Z,101694.75
2022-10-19T01:23:33.699Z,101692.00
2022-10-19T01:25:57.155Z,101695.64
2022-10-19T01:28:33.075Z,101694.41
2022-10-19T01:30:46.053Z,101705.60
2022-10-19T01:33:10.827Z,101712.79
2022-10-19T01:35:21.179Z,101711.41
2022-10-19T01:37:58.155Z,101710.34
2022-10-19T01:40:28.179Z,101713.95
2022-10-19T01:42:41.973Z,101710.03
2022-10-19T01:45:15.417Z,101721.73
2022-10-19T01:47:28.135Z,101720.39
2022-10-19T01:49:49.251Z,101725.60
2022-10-19T01:52:05.360Z,101728.80
2022-10-19T01:54:16.974Z,101733.02
2022-10-19T01:56:29.923Z,101732.88
2022-10-19T01:58:41.266Z,101739.64
2022-10-19T02:00:54.635Z,101740.83
2022-10-19T02:03:05.507Z,101737.98
2022-10-19T02:05:19.237Z,101739.72
2022-10-19T02:07:35.171Z,101740.05
2022-10-19T02:09:42.075Z,101744.66
2022-10-19T02:11:56.121Z,101746.42
2022-10-19T02:14:09.511Z,101752.60
2022-10-19T02:16:26.546Z,101760.46
2022-10-19T02:18:39.593Z,101761.98
2022-10-19T02:20:48.870Z,101758.86
2022-10-19T02:23:01.680Z,101769.51
2022-10-19T02:25:12.926Z,101769.64
2022-10-19T02:27:20.505Z,101772.02
2022-10-19T02:29:34.850Z,101777.73
2022-10-19T02:31:45.773Z,101778.64
2022-10-19T02:34:09.009Z,101779.17
2022-10-19T02:41:44.010Z,101791.89
2022-10-19T02:43:55.941Z,101794.25
2022-10-19T02:46:07.580Z,101793.11
2022-10-19T02:48:20.833Z,101795.73
2022-10-19T02:50:28.875Z,101793.77
2022-10-19T02:52:35.213Z,101796.21
2022-10-19T02:54:44.686Z,101798.49
2022-10-19T02:56:51.395Z,101796.88
2022-10-19T02:58:58.110Z,101797.42
2022-10-19T03:01:04.436Z,101797.55
2022-10-19T03:03:12.231Z,101801.74
2022-10-19T03:05:18.359Z,101799.96
2022-10-19T03:07:25.224Z,101801.92
2022-10-19T03:09:31.465Z,101803.80
2022-10-19T03:11:38.183Z,101803.00
2022-10-19T03:13:44.698Z,101808.41
2022-10-19T03:15:51.426Z,101807.44
2022-10-19T03:17:58.275Z,101811.61
2022-10-19T03:20:04.937Z,101814.20
2022-10-19T03:22:11.158Z,101815.97
2022-10-19T03:24:17.546Z,101822.14
2022-10-19T03:26:23.916Z,101823.83
2022-10-19T03:28:30.980Z,101824.41
2022-10-19T03:30:37.032Z,101832.80
2022-10-19T03:32:43.605Z,101834.82
2022-10-19T03:34:50.880Z,101835.98
2022-10-19T03:37:00.156Z,101836.75
2022-10-19T03:39:15.544Z,101840.91
2022-10-19T03:41:23.580Z,101841.82
2022-10-19T03:43:29.592Z,101843.52
2022-10-19T03:45:35.783Z,101847.11
2022-10-19T03:47:42.353Z,101850.32
2022-10-19T03:49:51.287Z,101856.46
2022-10-19T03:51:57.573Z,101860.06
2022-10-19T03:54:07.721Z,101864.59
2022-10-19T03:56:16.652Z,101867.65
2022-10-19T03:58:23.074Z,101871.24
2022-10-19T04:00:29.833Z,101869.86
2022-10-19T04:02:36.340Z,101870.83
2022-10-19T04:04:43.135Z,101875.22
2022-10-19T04:06:51.263Z,101881.77
2022-10-19T04:08:58.307Z,101882.23
2022-10-19T04:11:07.042Z,101883.91
2022-10-19T04:13:13.259Z,101886.13
2022-10-19T04:15:19.999Z,101889.67
2022-10-19T04:17:26.973Z,101889.70
2022-10-19T04:19:33.993Z,101889.91
2022-10-19T04:21:41.665Z,101887.95
2022-10-19T04:23:47.796Z,101894.31
2022-10-19T04:25:53.982Z,101894.59
2022-10-19T04:28:00.733Z,101900.88
2022-10-19T04:30:07.196Z,101901.66
2022-10-19T04:32:13.907Z,101903.53
2022-10-19T04:34:20.829Z,101908.64
2022-10-19T04:36:27.504Z,101907.10
2022-10-19T04:38:34.900Z,101912.78
2022-10-19T04:40:41.193Z,101910.73
2022-10-19T04:42:47.611Z,101911.50
2022-10-19T04:44:53.636Z,101908.44
2022-10-19T04:47:00.307Z,101908.54
2022-10-19T04:49:07.796Z,101906.65
2022-10-19T04:51:14.096Z,101906.13
2022-10-19T04:53:20.809Z,101909.11
2022-10-19T04:55:27.114Z,101911.02
2022-10-19T04:57:34.045Z,101911.04
2022-10-19T04:59:40.495Z,101910.91
2022-10-19T05:01:47.522Z,101909.41
2022-10-19T05:04:02.305Z,101912.71
2022-10-19T05:06:09.331Z,101915.99
2022-10-19T05:08:15.560Z,101915.30
2022-10-19T05:10:22.397Z,101912.89
2022-10-19T05:12:29.130Z,101914.85
2022-10-19T05:14:37.903Z,101916.88
2022-10-19T05:16:46.789Z,101921.10
2022-10-19T05:18:57.288Z,101926.16
2022-10-19T05:21:12.667Z,101929.06
2022-10-19T05:23:19.236Z,101932.05
2022-10-19T05:25:25.542Z,101932.27
2022-10-19T05:27:32.397Z,101933.76
2022-10-19T05:29:39.387Z,101936.11
2022-10-19T05:31:46.000Z,101929.77
2022-10-19T05:33:52.844Z,101931.13
2022-10-19T05:35:59.328Z,101934.21
2022-10-19T05:38:05.824Z,101938.29
2022-10-19T05:40:12.576Z,101939.77
2022-10-19T05:42:19.199Z,101940.92
2022-10-19T05:44:25.612Z,101940.30
2022-10-19T05:46:33.153Z,101940.98
2022-10-19T05:48:40.897Z,101936.40
2022-10-19T05:51:07.617Z,101942.26
2022-10-19T05:53:14.014Z,101940.55
2022-10-19T05:55:20.166Z,101939.11
2022-10-19T05:57:26.929Z,101940.21
2022-10-19T05:59:33.557Z,101938.86
2022-10-19T06:01:40.110Z,101936.27
2022-10-19T06:03:46.981Z,101939.77
2022-10-19T06:05:54.321Z,101938.05
2022-10-19T06:08:00.945Z,101942.02
2022-10-19T06:10:08.130Z,101945.10
2022-10-19T06:12:15.847Z,101944.30
2022-10-19T06:14:23.808Z,101943.70
2022-10-19T06:16:32.398Z,101946.88
2022-10-19T06:18:39.103Z,101945.12
2022-10-19T06:20:45.460Z,101945.32
2022-10-19T06:22:52.227Z,101945.63
2022-10-19T06:24:58.399Z,101953.70
2022-10-19T06:27:04.470Z,101951.81
2022-10-19T06:29:11.322Z,101949.29
2022-10-19T06:31:18.693Z,101947.29
2022-10-19T06:33:24.659Z,101944.77
2022-10-19T06:35:31.162Z,101943.52
2022-10-19T06:37:37.598Z,101943.34
2022-10-19T06:39:44.466Z,101939.77
2022-10-19T06:41:51.030Z,101947.27
2022-10-19T06:43:57.338Z,101947.73
2022-10-19T06:46:09.207Z,101951.61
2022-10-19T06:48:15.240Z,101953.20
2022-10-19T06:50:21.760Z,101951.09
2022-10-19T06:52:27.878Z,101948.09
2022-10-19T06:54:34.352Z,101946.83
2022-10-19T06:56:40.745Z,101941.15
2022-10-19T06:58:48.334Z,101940.82
2022-10-19T07:00:59.317Z,101939.30
2022-10-19T07:03:05.532Z,101936.02
2022-10-19T07:05:12.274Z,101936.06
2022-10-19T07:07:18.749Z,101931.34
2022-10-19T07:09:24.774Z,101931.84
2022-10-19T07:11:31.102Z,101928.53
2022-10-19T07:13:37.682Z,101931.05
2022-10-19T07:15:43.765Z,101936.19
2022-10-19T07:17:50.407Z,101935.10
2022-10-19T07:19:56.678Z,101934.05
2022-10-19T07:22:02.935Z,101937.80
2022-10-19T07:24:10.061Z,101938.86
2022-10-19T07:26:24.486Z,101936.05
2022-10-19T07:28:31.923Z,101941.30
2022-10-19T07:30:40.244Z,101935.15
2022-10-19T07:32:47.159Z,101941.00
2022-10-19T07:34:53.658Z,101940.01
2022-10-19T07:36:59.579Z,101939.90
2022-10-19T07:39:07.971Z,101943.63
2022-10-19T07:41:17.255Z,101943.67
2022-10-19T07:43:23.603Z,101940.42
2022-10-19T07:45:31.334Z,101942.09
2022-10-19T07:47:37.865Z,101944.59
2022-10-19T07:49:44.846Z,101942.73
2022-10-19T07:51:55.018Z,101946.02
2022-10-19T07:54:01.671Z,101942.79
2022-10-19T07:56:17.565Z,101945.13
2022-10-19T07:58:24.090Z,101945.44
2022-10-19T08:00:30.941Z,101949.12
2022-10-19T08:02:54.628Z,101945.45
2022-10-19T08:05:06.342Z,101948.05
2022-10-19T08:07:15.351Z,101942.63
2022-10-19T08:09:51.355Z,101940.48
2022-10-19T08:11:48.944Z,101941.20
2022-10-19T08:13:56.149Z,101940.66
2022-10-19T08:16:02.443Z,101946.00
2022-10-19T08:18:08.604Z,101943.63
2022-10-19T08:20:15.213Z,101943.70
2022-10-19T08:22:21.480Z,101944.09
2022-10-19T08:24:27.928Z,101946.33
2022-10-19T08:26:37.178Z,101950.72
2022-10-19T08:28:43.141Z,101953.60
2022-10-19T08:30:49.943Z,101952.36
2022-10-19T08:32:56.492Z,101953.02
2022-10-19T08:35:04.260Z,101950.32
2022-10-19T08:37:25.951Z,101955.83
2022-10-19T08:39:39.503Z,101961.08
2022-10-19T08:41:54.674Z,101967.14
2022-10-19T08:44:16.669Z,101968.23
2022-10-19T08:47:06.060Z,101971.71
2022-10-19T08:49:20.975Z,101975.56
2022-10-19T08:51:29.416Z,101976.18
2022-10-19T08:53:53.845Z,101976.41
2022-10-19T08:56:49.253Z,101968.94
2022-10-19T08:58:55.373Z,101977.91
2022-10-19T09:01:28.528Z,101973.65
2022-10-19T09:03:56.170Z,101973.61
2022-10-19T09:06:30.443Z,101972.11
2022-10-19T09:08:40.492Z,101972.42
2022-10-19T09:10:50.850Z,101972.67
2022-10-19T09:13:09.303Z,101972.25
2022-10-19T09:15:22.149Z,101972.83
2022-10-19T09:17:29.366Z,101975.80
2022-10-19T09:19:35.430Z,101978.09
2022-10-19T09:21:59.852Z,101980.86
2022-10-19T09:24:28.805Z,101983.19
2022-10-19T09:26:51.648Z,101981.39
2022-10-19T09:29:13.417Z,101982.44
2022-10-19T09:31:44.607Z,101980.99
2022-10-19T09:33:57.651Z,101984.52
2022-10-19T09:36:06.601Z,101987.85
2022-10-19T09:38:17.772Z,101983.92
2022-10-19T09:40:30.519Z,101989.89
2022-10-19T09:42:37.955Z,101987.96
2022-10-19T09:44:44.470Z,101988.20
2022-10-19T09:46:53.494Z,101993.66
2022-10-19T09:49:04.883Z,101995.96
2022-10-19T09:51:17.029Z,102000.56
2022-10-19T09:53:24.011Z,102002.48
2022-10-19T09:55:39.012Z,102000.57
2022-10-19T09:57:51.111Z,102000.71
2022-10-19T09:59:58.103Z,101999.64
2022-10-19T10:02:18.517Z,102004.55
2022-10-19T10:04:25.113Z,102007.95
2022-10-19T10:06:31.455Z,102007.96
2022-10-19T10:08:47.694Z,102007.76
2022-10-19T10:11:10.355Z,102013.66
2022-10-19T10:13:22.572Z,102014.86
2022-10-19T10:15:43.462Z,102014.81
2022-10-19T10:17:51.285Z,102012.23
2022-10-19T10:20:00.657Z,102015.91
2022-10-19T10:22:23.647Z,102017.08
2022-10-19T10:24:32.709Z,102019.48
2022-10-19T10:26:45.227Z,102016.58
2022-10-19T10:28:53.273Z,102016.91
2022-10-19T10:31:09.553Z,102018.81
2022-10-19T10:33:40.279Z,102014.71
2022-10-19T10:35:54.720Z,102017.11
2022-10-19T10:38:29.397Z,102017.61
2022-10-19T10:40:35.637Z,102019.73
2022-10-19T10:42:47.220Z,102020.64
2022-10-19T10:44:57.316Z,102014.91
2022-10-19T10:47:07.941Z,102017.00
2022-10-19T10:49:45.742Z,102017.55
2022-10-19T10:52:13.269Z,102016.76
2022-10-19T10:54:25.218Z,102017.06
2022-10-19T10:56:34.933Z,102018.08
2022-10-19T10:58:49.015Z,102022.94
2022-10-19T11:00:55.632Z,102020.35
2022-10-19T11:03:39.245Z,102025.10
2022-10-19T11:06:00.235Z,102017.33
2022-10-19T11:08:24.650Z,102018.06
2022-10-19T11:10:38.041Z,102017.50
2022-10-19T11:12:50.361Z,102015.67
2022-10-19T11:15:24.195Z,102015.61
2022-10-19T11:17:35.008Z,102018.95
2022-10-19T11:19:51.264Z,102021.93
2022-10-19T11:22:16.537Z,102025.76
2022-10-19T11:24:47.828Z,102024.70
2022-10-19T11:27:24.496Z,102029.50
2022-10-19T11:29:33.577Z,102028.20
2022-10-19T11:32:32.841Z,102026.84
2022-10-19T11:34:52.449Z,102032.98
2022-10-19T11:37:27.528Z,102033.89
2022-10-19T11:39:53.165Z,102035.38
2022-10-19T11:42:20.775Z,102038.58
2022-10-19T11:45:04.927Z,102035.90
2022-10-19T11:47:21.414Z,102037.24
2022-10-19T11:49:33.207Z,102034.29
2022-10-19T11:51:53.088Z,102034.98
2022-10-19T11:54:17.972Z,102033.14
2022-10-19T11:56:44.859Z,102034.08
2022-10-19T11:59:07.928Z,102033.52
2022-10-19T12:01:36.315Z,102034.52
2022-10-19T12:04:02.582Z,102033.40
2022-10-19T12:06:14.683Z,102036.38
2022-10-19T12:08:43.293Z,102038.13
2022-10-19T12:11:29.581Z,102034.67
2022-10-19T12:13:48.116Z,102036.74
2022-10-19T12:15:57.954Z,102042.45
2022-10-19T12:18:14.304Z,102040.41
2022-10-19T12:20:44.366Z,102041.84
2022-10-19T12:22:51.453Z,102045.91
2022-10-19T12:25:01.549Z,102043.79
2022-10-19T12:27:12.315Z,102045.94
2022-10-19T12:29:29.424Z,102049.76
2022-10-19T12:31:37.271Z,102053.55
2022-10-19T12:34:01.292Z,102051.50
2022-10-19T12:36:16.240Z,102052.19
2022-10-19T12:38:44.014Z,102053.91
2022-10-19T12:41:12.110Z,102047.67
2022-10-19T12:43:24.857Z,102050.28
2022-10-19T12:45:43.111Z,102047.89
2022-10-19T12:48:21.796Z,102052.94
2022-10-19T12:50:55.090Z,102053.95
2022-10-19T12:53:01.502Z,102052.30
2022-10-19T12:55:36.033Z,102054.96
2022-10-19T12:57:44.767Z,102050.80
2022-10-19T13:00:02.362Z,102053.59
2022-10-19T13:02:31.112Z,102052.51
2022-10-19T13:04:38.950Z,102054.73
2022-10-19T13:06:50.423Z,102047.73
2022-10-19T13:08:57.116Z,102044.19
2022-10-19T13:11:09.177Z,102040.98
2022-10-19T13:13:33.913Z,102039.89
2022-10-19T13:15:40.232Z,102035.01
2022-10-19T13:17:52.096Z,102031.95
2022-10-19T13:20:17.152Z,102035.63
2022-10-19T13:22:29.075Z,102033.27
2022-10-19T13:24:37.143Z,102029.52
2022-10-19T13:26:43.687Z,102033.52
2022-10-19T13:28:57.149Z,102029.71
2022-10-19T13:31:06.940Z,102027.19
2022-10-19T13:33:33.655Z,102025.61
2022-10-19T13:35:40.678Z,102028.65
2022-10-19T13:37:46.857Z,102030.69
2022-10-19T13:39:52.986Z,102032.24
2022-10-19T13:42:00.358Z,102033.27
2022-10-19T13:44:16.407Z,102035.70
2022-10-19T13:46:22.367Z,102036.81
2022-10-19T13:49:05.506Z,102032.77
2022-10-19T13:51:30.324Z,102038.15
2022-10-19T13:53:49.848Z,102039.19
2022-10-19T13:58:48.423Z,102031.84
2022-10-19T14:01:24.689Z,102031.49
2022-10-19T14:03:54.501Z,102033.65
2022-10-19T14:06:05.919Z,102033.25
2022-10-19T14:08:43.053Z,102033.48
2022-10-19T14:11:00.955Z,102037.92
2022-10-19T14:13:14.563Z,102039.45
2022-10-19T14:15:31.145Z,102039.08
2022-10-19T14:17:43.715Z,102039.73
2022-10-19T14:19:53.674Z,102036.17
2022-10-19T14:22:02.812Z,102031.65
2022-10-19T14:24:36.833Z,102027.20
2022-10-19T14:26:43.414Z,102021.84
2022-10-19T14:29:00.812Z,102023.86
2022-10-19T14:31:09.755Z,102028.21
2022-10-19T14:33:18.962Z,102030.15
2022-10-19T14:35:36.949Z,102031.79
2022-10-19T14:37:45.162Z,102033.35
2022-10-19T14:40:26.799Z,102030.77
2022-10-19T14:42:48.469Z,102027.80
2022-10-19T14:44:56.525Z,102027.83
2022-10-19T14:47:04.174Z,102027.15
2022-10-19T14:49:12.999Z,102029.00
2022-10-19T14:51:56.003Z,102030.35
2022-10-19T14:54:13.075Z,102032.58
2022-10-19T14:56:29.886Z,102033.45
2022-10-19T14:58:46.787Z,102032.81
2022-10-19T15:00:54.966Z,102031.68
2022-10-19T15:03:06.418Z,102025.01
2022-10-19T15:05:29.652Z,102022.91
2022-10-19T15:07:44.298Z,102016.03
2022-10-19T15:09:59.597Z,102014.29
2022-10-19T15:12:13.834Z,102009.83
2022-10-19T15:14:24.580Z,102011.21
2022-10-19T15:16:59.043Z,102009.19
2022-10-19T15:19:16.996Z,102008.66
2022-10-19T15:21:23.759Z,102005.30
2022-10-19T15:23:43.664Z,102010.88
2022-10-19T15:26:01.304Z,102012.33
2022-10-19T15:28:34.973Z,102006.86
2022-10-19T15:30:44.217Z,102006.45
2022-10-19T15:33:09.578Z,102015.86
2022-10-19T15:35:21.850Z,102015.02
2022-10-19T15:37:28.270Z,102015.36
2022-10-19T15:39:40.972Z,102013.34
2022-10-19T15:41:49.960Z,102015.70
2022-10-19T15:43:59.954Z,102017.44
2022-10-19T15:46:22.819Z,102023.23
2022-10-19T15:48:51.119Z,102019.45
2022-10-19T15:51:00.360Z,102023.60
2022-10-19T15:53:06.940Z,102031.20
2022-10-19T15:55:15.496Z,102030.95
2022-10-19T15:57:32.894Z,102031.11
2022-10-19T15:59:39.474Z,102033.13
2022-10-19T16:01:46.767Z,102033.75
2022-10-19T16:03:53.434Z,102036.09
2022-10-19T16:06:00.152Z,102039.88
2022-10-19T16:08:10.169Z,102045.55
2022-10-19T16:10:22.759Z,102050.20
2022-10-19T16:12:28.782Z,102051.15
2022-10-19T16:14:36.700Z,102052.29
2022-10-19T16:16:43.562Z,102057.71
2022-10-19T16:18:49.571Z,102063.16
2022-10-19T16:20:55.516Z,102064.31
2022-10-19T16:23:01.554Z,102063.72
2022-10-19T16:25:08.052Z,102061.45
2022-10-19T16:27:17.454Z,102059.80
2022-10-19T16:29:26.755Z,102059.88
2022-10-19T16:31:35.188Z,102062.73
2022-10-19T16:33:41.402Z,102066.35
2022-10-19T16:35:47.765Z,102061.93
2022-10-19T16:37:54.307Z,102066.06
2022-10-19T16:40:00.929Z,102066.09
2022-10-19T16:42:08.255Z,102065.19
2022-10-19T16:44:14.840Z,102064.61
2022-10-19T16:46:24.328Z,102072.40
2022-10-19T16:48:31.010Z,102072.00
2022-10-19T16:50:37.814Z,102074.60
2022-10-19T16:52:44.402Z,102076.88
2022-10-19T16:54:50.343Z,102076.64
2022-10-19T16:56:56.969Z,102077.25
2022-10-19T16:59:08.038Z,102080.25
2022-10-19T17:01:19.487Z,102072.80
2022-10-19T17:03:25.588Z,102071.66
2022-10-19T17:05:31.607Z,102068.94
2022-10-19T17:07:37.805Z,102070.63
2022-10-19T17:09:44.362Z,102076.39
2022-10-19T17:11:50.439Z,102078.98
2022-10-19T17:13:59.426Z,102075.52
2022-10-19T17:16:07.151Z,102076.63
2022-10-19T17:18:13.163Z,102079.86
2022-10-19T17:20:19.226Z,102078.01
2022-10-19T17:22:25.476Z,102077.48
2022-10-19T17:24:32.580Z,102077.84
2022-10-19T17:26:44.703Z,102076.83
2022-10-19T17:28:51.025Z,102077.64
2022-10-19T17:30:58.878Z,102079.02
2022-10-19T17:33:05.498Z,102078.80
2022-10-19T17:35:11.981Z,102082.55
2022-10-19T17:37:18.194Z,102077.88
2022-10-19T17:39:29.808Z,102079.54
2022-10-19T17:41:37.236Z,102077.57
2022-10-19T17:43:45.286Z,102075.02
2022-10-19T17:46:06.322Z,102081.96
2022-10-19T17:48:13.039Z,102080.23
2022-10-19T17:50:19.773Z,102073.23
2022-10-19T17:52:26.109Z,102072.02
2022-10-19T17:54:43.420Z,102069.23
2022-10-19T17:56:59.433Z,102072.38
2022-10-19T17:59:08.868Z,102072.03
2022-10-19T18:01:16.590Z,102073.90
2022-10-19T18:03:24.003Z,102069.77
2022-10-19T18:05:30.236Z,102066.94
2022-10-19T18:07:36.992Z,102066.23
2022-10-19T18:09:43.254Z,102061.56
2022-10-19T18:11:49.499Z,102064.23
2022-10-19T18:14:00.518Z,102064.11
2022-10-19T18:16:10.982Z,102064.15
2022-10-19T18:18:19.925Z,102063.77
2022-10-19T18:20:25.972Z,102065.31
2022-10-19T18:22:32.525Z,102060.52
2022-10-19T18:24:39.839Z,102060.04
2022-10-19T18:26:46.370Z,102059.95
2022-10-19T18:28:56.441Z,102063.30
2022-10-19T18:31:15.799Z,102059.69
2022-10-19T18:33:24.286Z,102062.23
2022-10-19T18:35:31.296Z,102060.02
2022-10-19T18:37:37.764Z,102057.11
2022-10-19T18:39:44.565Z,102054.34
2022-10-19T18:41:55.410Z,102050.05
2022-10-19T18:44:04.567Z,102049.28
2022-10-19T18:46:13.068Z,102048.24
2022-10-19T18:48:20.036Z,102048.92
2022-10-19T18:50:26.853Z,102043.34
2022-10-19T18:52:37.070Z,102043.98
2022-10-19T18:54:44.222Z,102045.95
2022-10-19T18:56:50.748Z,102046.02
2022-10-19T18:58:57.809Z,102046.17
2022-10-19T19:01:12.017Z,102043.74
2022-10-19T19:03:21.718Z,102043.17
2022-10-19T19:05:33.858Z,102039.18
2022-10-19T19:07:42.163Z,102040.17
2022-10-19T19:10:01.249Z,102039.54
2022-10-19T19:12:08.756Z,102034.48
2022-10-19T19:14:23.737Z,102032.36
2022-10-19T19:16:34.998Z,102024.66
2022-10-19T19:18:42.618Z,102022.54
2022-10-19T19:20:50.280Z,102019.17
2022-10-19T19:23:00.019Z,102013.99
2022-10-19T19:25:07.755Z,102009.85
2022-10-19T19:27:14.927Z,102007.40
2022-10-19T19:29:23.468Z,102008.81
2022-10-19T19:31:34.248Z,102003.73
2022-10-19T19:33:41.431Z,102001.27
2022-10-19T19:35:50.042Z,102003.23
2022-10-19T19:37:57.804Z,101999.84
2022-10-19T19:40:10.336Z,101996.77
2022-10-19T19:42:25.676Z,102000.36
2022-10-19T19:44:35.806Z,101996.07
2022-10-19T19:46:44.233Z,101998.13
2022-10-19T19:48:54.133Z,101994.03
2022-10-19T19:51:04.535Z,101988.86
2022-10-19T19:53:14.323Z,101979.89
2022-10-19T19:55:21.415Z,101976.67
2022-10-19T19:57:31.008Z,101973.90
2022-10-19T19:59:42.328Z,101969.39
2022-10-19T20:01:54.450Z,101966.11
2022-10-19T20:04:08.328Z,101961.21
2022-10-19T20:06:19.692Z,101960.13
2022-10-19T20:08:29.476Z,101955.87
2022-10-19T20:10:48.659Z,101953.87
2022-10-19T20:12:59.396Z,101948.48
2022-10-19T20:15:08.085Z,101947.46
2022-10-19T20:17:16.261Z,101940.36
2022-10-19T20:19:24.765Z,101934.11
2022-10-19T20:21:33.015Z,101931.47
2022-10-19T20:23:41.535Z,101929.59
2022-10-19T20:25:55.238Z,101924.53
2022-10-19T20:28:03.018Z,101927.35
2022-10-19T20:30:14.294Z,101923.58
2022-10-19T20:32:22.218Z,101915.97
2022-10-19T20:34:30.873Z,101911.78
2022-10-19T20:36:44.208Z,101909.92
2022-10-19T20:38:57.171Z,101908.73
2022-10-19T20:41:09.273Z,101904.52
2022-10-19T20:43:16.561Z,101901.17
2022-10-19T20:45:26.762Z,101898.70
2022-10-19T20:47:36.632Z,101900.14
2022-10-19T20:49:45.160Z,101896.04
2022-10-19T20:51:56.471Z,101891.72
2022-10-19T20:54:05.885Z,101885.29
2022-10-19T20:56:13.997Z,101879.63
2022-10-19T20:58:21.347Z,101874.19
2022-10-19T21:00:28.828Z,101876.13
2022-10-19T21:02:38.977Z,101870.80
2022-10-19T21:04:46.588Z,101869.77
2022-10-19T21:06:54.517Z,101864.89
2022-10-19T21:09:02.604Z,101864.54
2022-10-19T21:11:26.114Z,101860.77
2022-10-19T21:13:33.768Z,101853.23
2022-10-19T21:15:46.272Z,101850.72
2022-10-19T21:17:54.563Z,101850.92
2022-10-19T21:20:04.127Z,101849.86
2022-10-19T21:22:13.431Z,101847.70
2022-10-19T21:24:28.834Z,101842.88
2022-10-19T21:26:38.207Z,101838.14
2022-10-19T21:28:56.885Z,101835.65
2022-10-19T21:31:09.577Z,101834.09
2022-10-19T21:33:17.535Z,101833.11
2022-10-19T21:35:25.385Z,101832.30
2022-10-19T21:37:32.978Z,101825.83
2022-10-19T21:39:44.546Z,101829.27
2022-10-19T21:41:52.417Z,101823.79
2022-10-19T21:44:05.188Z,101824.60
2022-10-19T21:46:17.912Z,101818.88
2022-10-19T21:48:26.223Z,101809.49
2022-10-19T21:50:36.888Z,101809.16
2022-10-19T21:52:44.046Z,101806.04
2022-10-19T21:54:51.328Z,101805.81
2022-10-19T21:56:59.951Z,101803.17
2022-10-19T21:59:11.136Z,101803.94
2022-10-19T22:01:23.520Z,101801.41
2022-10-19T22:03:31.393Z,101800.13
2022-10-19T22:05:40.088Z,101796.64
2022-10-19T22:07:47.296Z,101797.11
2022-10-19T22:10:02.161Z,101793.39
2022-10-19T22:14:29.498Z,101784.45
2022-10-19T22:16:41.128Z,101784.66
2022-10-19T22:18:49.593Z,101785.58
2022-10-19T22:20:57.185Z,101777.85
2022-10-19T22:23:05.723Z,101775.02
2022-10-19T22:25:12.964Z,101771.36
2022-10-19T22:27:22.461Z,101767.89
2022-10-19T22:29:29.516Z,101764.79
2022-10-19T22:31:38.515Z,101764.05
2022-10-19T22:33:46.635Z,101758.75
2022-10-19T22:36:03.806Z,101756.16
2022-10-19T22:38:12.468Z,101757.27
2022-10-19T22:40:19.868Z,101755.10
2022-10-19T22:43:21.708Z,101758.17
2022-10-19T22:45:49.335Z,101751.48
2022-10-19T22:47:55.775Z,101745.11
2022-10-19T22:50:02.471Z,101740.28
2022-10-19T22:52:08.957Z,101740.30
2022-10-19T22:54:15.817Z,101738.59
2022-10-19T22:56:22.294Z,101737.40
2022-10-19T22:58:28.931Z,101738.67
2022-10-19T23:00:35.263Z,101733.29
2022-10-19T23:02:41.390Z,101736.40
2022-10-19T23:04:48.110Z,101728.66
2022-10-19T23:06:54.708Z,101730.46
2022-10-19T23:09:01.862Z,101727.17
2022-10-19T23:11:08.982Z,101727.75
2022-10-19T23:13:16.228Z,101729.14
2022-10-19T23:15:23.807Z,101732.91
2022-10-19T23:17:30.094Z,101733.59
2022-10-19T23:19:36.442Z,101731.44
2022-10-19T23:21:44.263Z,101727.16
2022-10-19T23:23:50.811Z,101723.38
2022-10-19T23:26:12.820Z,101719.73
2022-10-19T23:28:19.919Z,101718.48
2022-10-19T23:30:28.236Z,101717.02
2022-10-19T23:32:35.499Z,101716.73
2022-10-19T23:34:47.435Z,101715.10
2022-10-19T23:36:56.478Z,101715.35
2022-10-19T23:39:07.100Z,101711.39
2022-10-19T23:41:15.315Z,101708.80
2022-10-19T23:43:22.276Z,101704.63
2022-10-19T23:45:29.721Z,101707.67
2022-10-19T23:47:37.584Z,101702.17
2022-10-19T23:49:46.270Z,101703.37
2022-10-19T23:51:59.507Z,101697.48
2022-10-19T23:54:06.423Z,101697.91
2022-10-19T23:56:20.807Z,101691.20
2022-10-19T23:58:36.812Z,101689.94
